createdAt,value
2023-04-09T00:00:17.963Z,13.63
2023-04-09T00:02:45.369Z,14.20
2023-04-09T00:05:12.774Z,13.75
2023-04-09T00:07:39.956Z,13.25
2023-04-09T00:10:07.501Z,14.68
2023-04-09T00:12:34.671Z,12.45
2023-04-09T00:15:01.767Z,13.27
2023-04-09T00:17:28.913Z,12.32
2023-04-09T00:19:56.255Z,14.07
2023-04-09T00:22:23.430Z,15.63
2023-04-09T00:24:50.681Z,13.15
2023-04-09T00:27:17.913Z,14.00
2023-04-09T00:29:45.360Z,13.40
2023-04-09T00:32:12.470Z,17.48
2023-04-09T00:34:39.829Z,15.60
2023-04-09T00:37:07.035Z,15.73
2023-04-09T00:39:34.157Z,12.50
2023-04-09T00:42:04.704Z,12.85
2023-04-09T00:44:31.850Z,13.80
2023-04-09T00:47:00.679Z,14.05
2023-04-09T00:49:28.384Z,14.60
2023-04-09T00:51:55.530Z,13.80
2023-04-09T00:54:22.711Z,14.63
2023-04-09T00:56:49.977Z,16.05
2023-04-09T00:59:17.116Z,12.30
2023-04-09T01:01:44.259Z,13.07
2023-04-09T01:04:11.623Z,16.02
2023-04-09T01:06:49.759Z,14.35
2023-04-09T01:09:31.740Z,13.68
2023-04-09T01:12:02.548Z,14.57
2023-04-09T01:14:39.928Z,15.48
2023-04-09T01:17:08.973Z,17.30
2023-04-09T01:19:36.121Z,17.00
2023-04-09T01:22:03.414Z,18.38
2023-04-09T01:24:37.808Z,13.40
2023-04-09T01:27:04.950Z,16.13
2023-04-09T01:29:34.009Z,14.45
2023-04-09T01:32:02.855Z,19.20
2023-04-09T01:34:31.207Z,18.63
2023-04-09T01:36:59.394Z,17.23
2023-04-09T01:39:27.247Z,11.75
2023-04-09T01:41:54.548Z,17.00
2023-04-09T01:44:22.070Z,12.88
2023-04-09T01:46:49.946Z,14.85
2023-04-09T01:49:17.854Z,15.63
2023-04-09T01:51:45.157Z,13.68
2023-04-09T01:54:12.272Z,15.18
2023-04-09T01:56:43.531Z,14.02
2023-04-09T02:01:48.454Z,20.73
2023-04-09T02:04:38.752Z,15.13
2023-04-09T02:07:07.307Z,14.13
2023-04-09T02:09:37.090Z,13.43
2023-04-09T02:12:04.898Z,13.48
2023-04-09T02:14:33.311Z,14.63
2023-04-09T02:17:01.010Z,16.52
2023-04-09T02:19:44.819Z,15.23
2023-04-09T02:22:12.813Z,13.95
2023-04-09T02:24:40.553Z,15.75
2023-04-09T02:27:08.435Z,15.43
2023-04-09T02:29:35.612Z,14.30
2023-04-09T02:32:02.726Z,17.73
2023-04-09T02:34:30.042Z,15.00
2023-04-09T02:36:57.147Z,16.73
2023-04-09T02:39:24.297Z,19.95
2023-04-09T02:41:51.478Z,15.77
2023-04-09T02:44:18.625Z,16.02
2023-04-09T02:46:46.869Z,14.40
2023-04-09T02:49:14.132Z,17.77
2023-04-09T02:51:41.223Z,17.40
2023-04-09T02:54:08.340Z,18.45
2023-04-09T02:56:35.600Z,19.15
2023-04-09T02:59:02.679Z,21.65
2023-04-09T03:01:29.853Z,18.23
2023-04-09T03:03:57.099Z,17.15
2023-04-09T03:06:24.312Z,18.48
2023-04-09T03:08:51.761Z,21.20
2023-04-09T03:11:19.092Z,18.50
2023-04-09T03:13:46.185Z,18.52
2023-04-09T03:16:13.346Z,16.52
2023-04-09T03:18:40.586Z,16.02
2023-04-09T03:21:08.069Z,17.63
2023-04-09T03:23:35.472Z,18.45
2023-04-09T03:26:03.389Z,15.60
2023-04-09T03:28:30.681Z,16.73
2023-04-09T03:30:58.231Z,17.75
2023-04-09T03:33:28.310Z,17.20
2023-04-09T03:35:55.638Z,15.15
2023-04-09T03:38:22.762Z,16.42
2023-04-09T03:40:49.924Z,16.52
2023-04-09T03:43:17.066Z,19.83
2023-04-09T03:45:44.164Z,14.38
2023-04-09T03:48:11.279Z,20.38
2023-04-09T03:50:41.922Z,21.42
2023-04-09T03:53:09.046Z,15.77
2023-04-09T03:55:36.555Z,22.63
2023-04-09T03:58:03.688Z,16.98
2023-04-09T04:00:31.936Z,15.63
2023-04-09T04:02:59.343Z,15.15
2023-04-09T04:05:26.770Z,15.70
2023-04-09T04:07:54.023Z,17.50
2023-04-09T04:10:21.272Z,15.77
2023-04-09T04:12:48.401Z,15.93
2023-04-09T04:15:15.558Z,14.13
2023-04-09T04:17:42.757Z,15.73
2023-04-09T04:20:10.182Z,17.98
2023-04-09T04:22:37.279Z,17.45
2023-04-09T04:25:05.128Z,15.32
2023-04-09T04:27:32.264Z,16.88
2023-04-09T04:30:00.296Z,13.93
2023-04-09T04:32:27.540Z,16.38
2023-04-09T04:34:55.051Z,15.05
2023-04-09T04:37:22.240Z,14.43
2023-04-09T04:39:49.390Z,16.20
2023-04-09T04:42:16.667Z,17.73
2023-04-09T04:44:44.338Z,16.50
2023-04-09T04:47:11.542Z,16.50
2023-04-09T04:49:38.636Z,14.95
2023-04-09T04:52:06.528Z,14.20
2023-04-09T04:54:34.427Z,16.83
2023-04-09T04:57:01.612Z,14.63
2023-04-09T04:59:28.823Z,15.88
2023-04-09T05:01:56.155Z,18.30
2023-04-09T05:04:23.578Z,18.65
2023-04-09T05:06:51.026Z,22.02
2023-04-09T05:09:18.770Z,19.75
2023-04-09T05:11:46.896Z,19.35
2023-04-09T05:14:13.994Z,19.52
2023-04-09T05:16:41.585Z,21.30
2023-04-09T05:19:08.786Z,23.70
2023-04-09T05:21:35.874Z,26.10
2023-04-09T05:24:03.231Z,23.75
2023-04-09T05:26:30.355Z,23.92
2023-04-09T05:28:57.475Z,26.25
2023-04-09T05:31:24.813Z,26.88
2023-04-09T05:33:52.927Z,26.65
2023-04-09T05:36:20.395Z,27.38
2023-04-09T05:38:48.127Z,25.92
2023-04-09T05:41:15.685Z,26.85
2023-04-09T05:43:43.057Z,23.67
2023-04-09T05:46:10.485Z,25.45
2023-04-09T05:48:37.625Z,21.98
2023-04-09T05:51:04.713Z,19.73
2023-04-09T05:53:32.402Z,20.00
2023-04-09T05:55:59.619Z,18.10
2023-04-09T05:58:27.320Z,20.90
2023-04-09T06:00:54.715Z,18.45
2023-04-09T06:03:21.888Z,28.90
2023-04-09T06:05:49.079Z,25.85
2023-04-09T06:08:16.659Z,28.63
2023-04-09T06:10:43.814Z,22.92
2023-04-09T06:13:10.984Z,17.40
2023-04-09T06:15:39.077Z,17.17
2023-04-09T06:18:06.360Z,14.13
2023-04-09T06:20:33.621Z,14.55
2023-04-09T06:23:00.888Z,18.48
2023-04-09T06:25:27.970Z,15.68
2023-04-09T06:27:55.090Z,13.45
2023-04-09T06:30:23.027Z,13.70
2023-04-09T06:32:54.495Z,15.63
2023-04-09T06:35:22.311Z,14.18
2023-04-09T06:37:49.452Z,13.75
2023-04-09T06:40:16.567Z,13.18
2023-04-09T06:42:43.641Z,12.60
2023-04-09T06:45:10.984Z,14.65
2023-04-09T06:47:38.137Z,14.55
2023-04-09T06:50:05.626Z,13.68
2023-04-09T06:52:32.877Z,12.98
2023-04-09T06:54:59.955Z,14.02
2023-04-09T06:57:27.274Z,14.52
2023-04-09T06:59:54.437Z,15.13
2023-04-09T07:02:21.739Z,14.95
2023-04-09T07:04:49.016Z,15.38
2023-04-09T07:07:16.383Z,15.98
2023-04-09T07:09:43.550Z,15.05
2023-04-09T07:12:10.735Z,14.13
2023-04-09T07:14:38.001Z,16.65
2023-04-09T07:17:05.337Z,14.20
2023-04-09T07:19:32.423Z,15.25
2023-04-09T07:21:59.619Z,15.23
2023-04-09T07:24:26.684Z,15.95
2023-04-09T07:26:53.866Z,13.18
2023-04-09T07:29:22.411Z,14.02
2023-04-09T07:31:49.602Z,12.23
2023-04-09T07:34:16.921Z,11.25
2023-04-09T07:36:44.104Z,13.00
2023-04-09T07:39:11.260Z,11.77
2023-04-09T07:41:38.347Z,11.25
2023-04-09T07:44:06.468Z,12.60
2023-04-09T07:46:33.686Z,10.15
2023-04-09T07:49:00.871Z,11.52
2023-04-09T07:51:28.066Z,10.85
2023-04-09T07:53:55.330Z,10.48
2023-04-09T07:56:22.500Z,11.55
2023-04-09T07:58:50.936Z,9.48
2023-04-09T08:01:18.227Z,9.45
2023-04-09T08:03:46.105Z,13.07
2023-04-09T08:06:13.505Z,12.32
2023-04-09T08:08:40.679Z,10.95
2023-04-09T08:11:07.918Z,8.40
2023-04-09T08:13:35.272Z,8.27
2023-04-09T08:16:02.679Z,7.20
2023-04-09T08:18:30.265Z,7.65
2023-04-09T08:20:57.799Z,9.70
2023-04-09T08:23:25.000Z,9.25
2023-04-09T08:25:52.099Z,6.13
2023-04-09T08:28:19.393Z,8.70
2023-04-09T08:30:47.702Z,6.05
2023-04-09T08:33:15.310Z,8.68
2023-04-09T08:35:42.611Z,7.20
2023-04-09T08:38:09.875Z,8.07
2023-04-09T08:40:37.304Z,7.57
2023-04-09T08:43:08.017Z,6.45
2023-04-09T08:45:35.455Z,7.20
2023-04-09T08:48:03.882Z,8.50
2023-04-09T08:50:32.694Z,8.18
2023-04-09T08:52:59.880Z,7.15
2023-04-09T08:55:27.182Z,7.55
2023-04-09T08:57:54.353Z,6.80
2023-04-09T09:00:21.509Z,8.77
2023-04-09T09:03:03.422Z,8.25
2023-04-09T09:05:38.303Z,9.15
2023-04-09T09:08:05.686Z,6.22
2023-04-09T09:10:39.713Z,7.25
2023-04-09T09:13:18.745Z,7.15
2023-04-09T09:15:49.799Z,5.85
2023-04-09T09:18:18.605Z,11.57
2023-04-09T09:20:45.943Z,7.43
2023-04-09T09:23:13.031Z,8.25
2023-04-09T09:25:41.924Z,6.95
2023-04-09T09:28:10.180Z,8.23
2023-04-09T09:30:39.042Z,8.93
2023-04-09T09:33:09.175Z,10.43
2023-04-09T09:35:52.655Z,7.57
2023-04-09T09:38:19.815Z,9.25
2023-04-09T09:40:47.184Z,7.45
2023-04-09T09:43:15.213Z,8.27
2023-04-09T09:45:43.861Z,7.10
2023-04-09T09:48:15.460Z,7.95
2023-04-09T09:50:43.310Z,7.15
2023-04-09T09:53:11.680Z,8.02
2023-04-09T09:55:39.739Z,9.00
2023-04-09T09:58:13.209Z,7.88
2023-04-09T10:00:41.181Z,8.68
2023-04-09T10:03:14.722Z,10.32
2023-04-09T10:05:42.395Z,9.52
2023-04-09T10:08:10.276Z,11.63
2023-04-09T10:10:39.768Z,6.82
2023-04-09T10:13:07.903Z,9.68
2023-04-09T10:15:35.985Z,6.78
2023-04-09T10:18:03.328Z,7.82
2023-04-09T10:20:36.944Z,11.65
2023-04-09T10:23:06.931Z,8.65
2023-04-09T10:25:34.186Z,7.03
2023-04-09T10:28:16.545Z,10.07
2023-04-09T10:30:43.835Z,6.13
2023-04-09T10:33:11.536Z,9.90
2023-04-09T10:35:39.048Z,9.48
2023-04-09T10:38:10.094Z,8.13
2023-04-09T10:40:42.509Z,6.15
2023-04-09T10:43:10.448Z,9.77
2023-04-09T10:45:41.890Z,9.10
2023-04-09T10:48:13.654Z,8.00
2023-04-09T10:50:43.041Z,6.82
2023-04-09T10:53:21.404Z,9.60
2023-04-09T10:55:51.006Z,5.90
2023-04-09T10:58:18.179Z,8.95
2023-04-09T11:00:46.560Z,7.63
2023-04-09T11:03:24.354Z,9.63
2023-04-09T11:05:56.836Z,9.23
2023-04-09T11:08:23.969Z,10.15
2023-04-09T11:10:53.561Z,9.35
2023-04-09T11:13:21.941Z,8.65
2023-04-09T11:15:49.153Z,10.02
2023-04-09T11:18:23.167Z,11.73
2023-04-09T11:20:50.440Z,8.32
2023-04-09T11:23:18.833Z,9.07
2023-04-09T11:25:50.021Z,9.60
2023-04-09T11:28:17.602Z,8.77
2023-04-09T11:30:46.745Z,7.05
2023-04-09T11:33:14.402Z,11.05
2023-04-09T11:35:41.812Z,10.10
2023-04-09T11:38:09.581Z,8.27
2023-04-09T11:40:37.063Z,9.95
2023-04-09T11:43:04.281Z,11.05
2023-04-09T11:45:32.306Z,10.27
2023-04-09T11:47:59.681Z,9.32
2023-04-09T11:50:27.023Z,9.07
2023-04-09T11:52:54.136Z,8.98
2023-04-09T11:55:25.497Z,13.07
2023-04-09T11:57:54.337Z,11.35
2023-04-09T12:00:21.987Z,7.28
2023-04-09T12:02:49.922Z,7.97
2023-04-09T12:05:25.173Z,10.93
2023-04-09T12:07:56.668Z,9.75
2023-04-09T12:10:27.633Z,10.32
2023-04-09T12:12:54.873Z,8.70
2023-04-09T12:15:23.278Z,11.40
2023-04-09T12:17:59.829Z,7.85
2023-04-09T12:20:34.785Z,10.70
2023-04-09T12:23:03.562Z,8.80
2023-04-09T12:25:35.471Z,7.60
2023-04-09T12:28:03.204Z,8.10
2023-04-09T12:30:30.458Z,9.68
2023-04-09T12:32:57.636Z,7.32
2023-04-09T12:35:25.008Z,8.35
2023-04-09T12:37:52.329Z,10.93
2023-04-09T12:40:20.382Z,7.90
2023-04-09T12:42:47.830Z,9.48
2023-04-09T12:45:16.575Z,13.25
2023-04-09T12:47:44.216Z,8.15
2023-04-09T12:50:12.814Z,13.35
2023-04-09T12:52:40.201Z,7.80
2023-04-09T12:55:07.590Z,7.72
2023-04-09T12:57:35.015Z,7.30
2023-04-09T13:00:02.216Z,6.85
2023-04-09T13:02:30.133Z,7.20
2023-04-09T13:04:57.638Z,10.07
2023-04-09T13:07:26.162Z,7.13
2023-04-09T13:09:53.360Z,9.00
2023-04-09T13:12:21.588Z,10.35
2023-04-09T13:14:49.020Z,7.63
2023-04-09T13:17:16.467Z,6.97
2023-04-09T13:19:43.640Z,8.95
2023-04-09T13:22:10.857Z,9.50
2023-04-09T13:24:38.937Z,12.82
2023-04-09T13:27:06.910Z,12.30
2023-04-09T13:29:34.058Z,8.98
2023-04-09T13:32:06.769Z,9.23
2023-04-09T13:34:35.131Z,12.07
2023-04-09T13:37:02.836Z,12.60
2023-04-09T13:39:30.554Z,13.30
2023-04-09T13:41:57.756Z,15.20
2023-04-09T13:44:27.696Z,12.70
2023-04-09T13:46:54.835Z,15.02
2023-04-09T13:49:21.948Z,14.73
2023-04-09T13:51:50.125Z,14.65
2023-04-09T13:54:17.456Z,15.00
2023-04-09T13:56:45.119Z,13.10
2023-04-09T13:59:12.265Z,15.77
2023-04-09T14:01:39.481Z,15.30
2023-04-09T14:04:06.858Z,13.35
2023-04-09T14:06:34.064Z,12.23
2023-04-09T14:09:01.458Z,12.38
2023-04-09T14:11:28.878Z,12.88
2023-04-09T14:13:57.119Z,13.32
2023-04-09T14:16:24.258Z,16.15
2023-04-09T14:18:51.648Z,15.23
2023-04-09T14:21:19.106Z,14.55
2023-04-09T14:23:46.525Z,13.98
2023-04-09T14:26:13.934Z,15.48
2023-04-09T14:28:41.459Z,13.82
2023-04-09T14:31:08.628Z,11.02
2023-04-09T14:33:35.922Z,10.13
2023-04-09T14:36:03.051Z,11.95
2023-04-09T14:38:30.227Z,11.02
2023-04-09T14:40:57.394Z,10.65
2023-04-09T14:43:24.586Z,11.23
2023-04-09T14:45:51.862Z,9.98
2023-04-09T14:48:19.031Z,11.32
2023-04-09T14:50:46.247Z,11.20
2023-04-09T14:53:14.384Z,16.23
2023-04-09T14:55:41.518Z,17.25
2023-04-09T14:58:08.705Z,18.52
2023-04-09T15:00:36.137Z,19.58
2023-04-09T15:03:04.093Z,19.25
2023-04-09T15:05:31.490Z,18.42
2023-04-09T15:07:58.627Z,17.02
2023-04-09T15:10:25.793Z,20.05
2023-04-09T15:12:52.971Z,20.25
2023-04-09T15:15:20.239Z,20.23
2023-04-09T15:17:47.920Z,20.45
2023-04-09T15:20:15.138Z,22.65
2023-04-09T15:22:42.303Z,24.13
2023-04-09T15:25:09.566Z,23.02
2023-04-09T15:27:36.714Z,24.33
2023-04-09T15:30:04.082Z,26.88
2023-04-09T15:32:32.466Z,25.08
2023-04-09T15:35:00.810Z,25.73
2023-04-09T15:37:27.922Z,26.63
2023-04-09T15:39:55.028Z,25.13
2023-04-09T15:42:22.976Z,30.73
2023-04-09T15:44:50.547Z,25.55
2023-04-09T15:47:18.007Z,27.73
2023-04-09T15:49:45.268Z,28.60
2023-04-09T15:52:12.422Z,24.95
2023-04-09T15:54:39.631Z,27.55
2023-04-09T15:57:06.782Z,28.13
2023-04-09T15:59:33.850Z,25.58
2023-04-09T16:02:01.044Z,30.65
2023-04-09T16:04:28.364Z,29.10
2023-04-09T16:06:56.315Z,26.25
2023-04-09T16:09:23.837Z,29.67
2023-04-09T16:11:51.167Z,33.42
2023-04-09T16:14:18.349Z,39.80
2023-04-09T16:16:47.288Z,39.67
2023-04-09T16:19:14.594Z,42.25
2023-04-09T16:21:45.405Z,36.13
2023-04-09T16:24:13.014Z,27.67
2023-04-09T16:26:44.114Z,28.88
2023-04-09T16:29:11.526Z,28.45
2023-04-09T16:31:39.325Z,25.80
2023-04-09T16:34:06.503Z,22.42
2023-04-09T16:36:37.021Z,20.02
2023-04-09T16:39:04.793Z,25.80
2023-04-09T16:41:32.006Z,24.85
2023-04-09T16:43:59.216Z,27.23
2023-04-09T16:46:26.393Z,20.50
2023-04-09T16:48:53.755Z,19.83
2023-04-09T16:51:21.031Z,17.83
2023-04-09T16:53:48.144Z,15.95
2023-04-09T16:56:16.727Z,17.10
2023-04-09T16:58:44.573Z,14.98
2023-04-09T17:01:12.058Z,17.80
2023-04-09T17:03:39.368Z,17.13
2023-04-09T17:06:06.752Z,20.23
2023-04-09T17:08:34.884Z,20.90
2023-04-09T17:11:02.511Z,23.38
2023-04-09T17:13:30.415Z,23.40
2023-04-09T17:15:57.677Z,21.77
2023-04-09T17:18:24.948Z,25.90
2023-04-09T17:20:52.175Z,20.60
2023-04-09T17:23:19.388Z,23.45
2023-04-09T17:25:47.122Z,21.58
2023-04-09T17:28:14.646Z,21.20
2023-04-09T17:30:42.913Z,20.48
2023-04-09T17:33:10.132Z,20.58
2023-04-09T17:35:37.261Z,22.52
2023-04-09T17:38:04.468Z,22.08
2023-04-09T17:40:32.028Z,22.63
2023-04-09T17:43:00.012Z,22.98
2023-04-09T17:45:27.428Z,19.83
2023-04-09T17:47:55.325Z,18.20
2023-04-09T17:50:22.563Z,20.45
2023-04-09T17:52:50.617Z,20.67
2023-04-09T17:55:18.297Z,21.70
2023-04-09T17:57:45.452Z,21.83
2023-04-09T18:00:12.916Z,19.20
2023-04-09T18:02:40.273Z,23.33
2023-04-09T18:05:07.967Z,21.38
2023-04-09T18:07:35.345Z,18.90
2023-04-09T18:10:03.312Z,24.58
2023-04-09T18:12:30.713Z,20.70
2023-04-09T18:14:57.882Z,20.15
2023-04-09T18:17:26.418Z,23.88
2023-04-09T18:19:58.471Z,18.40
2023-04-09T18:22:27.363Z,18.00
2023-04-09T18:24:54.636Z,17.25
2023-04-09T18:27:21.878Z,19.73
2023-04-09T18:29:51.952Z,21.02
2023-04-09T18:32:19.814Z,19.58
2023-04-09T18:34:47.644Z,19.73
2023-04-09T18:37:15.114Z,20.90
2023-04-09T18:39:42.221Z,22.77
2023-04-09T18:42:09.418Z,25.70
2023-04-09T18:44:37.621Z,25.48
2023-04-09T18:47:05.730Z,34.92
2023-04-09T18:49:33.657Z,25.45
2023-04-09T18:52:01.273Z,22.75
2023-04-09T18:54:28.804Z,21.90
2023-04-09T18:56:57.532Z,23.70
2023-04-09T18:59:24.698Z,18.88
2023-04-09T19:01:52.060Z,21.95
2023-04-09T19:04:19.371Z,26.75
2023-04-09T19:06:47.359Z,24.55
2023-04-09T19:09:14.440Z,23.55
2023-04-09T19:11:41.684Z,22.73
2023-04-09T19:14:08.772Z,21.70
2023-04-09T19:16:36.012Z,19.45
2023-04-09T19:19:03.477Z,24.05
2023-04-09T19:21:30.603Z,23.02
2023-04-09T19:23:59.968Z,22.95
2023-04-09T19:26:27.103Z,23.48
2023-04-09T19:28:54.440Z,23.58
2023-04-09T19:31:22.074Z,25.08
2023-04-09T19:33:49.287Z,25.30
2023-04-09T19:36:16.705Z,25.25
2023-04-09T19:38:43.860Z,24.08
2023-04-09T19:41:11.086Z,26.17
2023-04-09T19:43:39.187Z,25.95
2023-04-09T19:46:09.353Z,30.67
2023-04-09T19:48:36.779Z,29.15
2023-04-09T19:51:04.138Z,28.33
2023-04-09T19:53:31.338Z,33.15
2023-04-09T19:55:58.527Z,37.03
2023-04-09T19:58:26.282Z,35.47
2023-04-09T20:00:53.546Z,40.63
2023-04-09T20:03:21.003Z,43.33
2023-04-09T20:05:48.278Z,45.13
2023-04-09T20:08:16.125Z,46.53
2023-04-09T20:10:46.391Z,53.55
2023-04-09T20:13:13.763Z,59.90
2023-04-09T20:15:41.586Z,55.60
2023-04-09T20:18:08.836Z,61.00
2023-04-09T20:20:36.110Z,58.10
2023-04-09T20:23:03.313Z,47.00
2023-04-09T20:25:34.686Z,53.40
2023-04-09T20:28:04.791Z,46.53
2023-04-09T20:30:32.281Z,46.38
2023-04-09T20:32:59.517Z,39.60
2023-04-09T20:35:27.322Z,37.72
2023-04-09T20:37:55.118Z,49.83
2023-04-09T20:40:22.567Z,46.28
2023-04-09T20:42:49.722Z,37.55
2023-04-09T20:45:16.867Z,36.90
2023-04-09T20:47:44.026Z,37.85
2023-04-09T20:50:11.387Z,34.45
2023-04-09T20:52:38.735Z,39.28
2023-04-09T20:55:06.481Z,37.78
2023-04-09T20:57:33.783Z,38.70
2023-04-09T21:00:00.966Z,43.55
2023-04-09T21:02:28.419Z,47.35
2023-04-09T21:04:57.104Z,55.92
2023-04-09T21:07:25.906Z,58.70
2023-04-09T21:09:53.061Z,56.15
2023-04-09T21:12:20.363Z,58.80
2023-04-09T21:14:48.313Z,57.30
2023-04-09T21:17:15.504Z,61.70
2023-04-09T21:19:42.768Z,62.63
2023-04-09T21:22:10.075Z,63.78
2023-04-09T21:24:37.878Z,62.58
2023-04-09T21:27:06.871Z,61.90
2023-04-09T21:29:37.382Z,57.42
2023-04-09T21:32:04.567Z,62.17
2023-04-09T21:34:31.724Z,61.45
2023-04-09T21:36:59.079Z,62.75
2023-04-09T21:39:26.425Z,64.38
2023-04-09T21:41:53.514Z,60.60
2023-04-09T21:44:20.682Z,61.65
2023-04-09T21:46:47.901Z,63.92
2023-04-09T21:49:15.065Z,55.97
2023-04-09T21:51:42.700Z,55.63
2023-04-09T21:54:10.808Z,60.00
2023-04-09T21:56:38.152Z,52.72
2023-04-09T21:59:05.679Z,55.13
2023-04-09T22:01:34.582Z,49.22
2023-04-09T22:04:02.444Z,53.15
2023-04-09T22:06:30.090Z,48.45
2023-04-09T22:08:58.292Z,50.25
2023-04-09T22:11:29.635Z,52.90
2023-04-09T22:13:57.684Z,49.00
2023-04-09T22:16:25.440Z,52.75
2023-04-09T22:18:53.906Z,45.63
2023-04-09T22:21:21.455Z,52.03
2023-04-09T22:23:48.700Z,52.53
2023-04-09T22:26:15.800Z,47.22
2023-04-09T22:28:42.902Z,54.08
2023-04-09T22:31:10.135Z,51.75
2023-04-09T22:33:37.296Z,52.97
2023-04-09T22:36:04.483Z,52.17
2023-04-09T22:38:31.917Z,49.70
2023-04-09T22:40:59.013Z,52.55
2023-04-09T22:43:26.106Z,51.05
2023-04-09T22:45:57.208Z,43.97
2023-04-09T22:50:51.567Z,33.45
2023-04-09T22:53:19.550Z,35.00
2023-04-09T22:55:54.436Z,31.08
2023-04-09T22:58:21.825Z,28.90
2023-04-09T23:00:49.605Z,32.33
2023-04-09T23:03:17.216Z,35.38
2023-04-09T23:05:44.429Z,29.75
2023-04-09T23:08:12.060Z,29.00
2023-04-09T23:10:39.187Z,33.30
2023-04-09T23:13:06.487Z,31.05
2023-04-09T23:15:33.574Z,26.50
2023-04-09T23:18:00.950Z,41.35
2023-04-09T23:20:28.218Z,33.90
2023-04-09T23:22:55.319Z,39.88
2023-04-09T23:25:22.881Z,38.13
2023-04-09T23:27:50.310Z,31.23
2023-04-09T23:30:18.151Z,32.50
2023-04-09T23:32:45.809Z,31.88
2023-04-09T23:35:13.228Z,29.55
2023-04-09T23:37:41.002Z,27.08
2023-04-09T23:40:08.474Z,31.23
2023-04-09T23:42:35.925Z,35.38
2023-04-09T23:45:04.415Z,32.80
2023-04-09T23:47:35.646Z,39.90
2023-04-09T23:50:06.793Z,37.53
2023-04-09T23:52:37.289Z,39.90
2023-04-09T23:55:05.300Z,36.47
2023-04-09T23:57:32.539Z,33.42
2023-04-09T23:59:59.632Z,31.48
